sensor_id;sensor_type;location;lat;lon;timestamp;P1;durP1;ratioP1;P2;durP2;ratioP2
27744;SDS011;61387;48.112;8.616;2023-11-18T00:00:45;12.27;;;7.17;;
27744;SDS011;61387;48.112;8.616;2023-11-18T00:03:11;10.77;;;6.23;;
27744;SDS011;61387;48.112;8.616;2023-11-18T00:05:37;11.82;;;6.45;;
27744;SDS011;61387;48.112;8.616;2023-11-18T00:08:03;14.17;;;6.50;;
27744;SDS011;61387;48.112;8.616;2023-11-18T00:10:29;13.37;;;7.00;;
27744;SDS011;61387;48.112;8.616;2023-11-18T00:12:55;10.07;;;6.07;;
27744;SDS011;61387;48.112;8.616;2023-11-18T00:15:20;11.87;;;6.17;;
27744;SDS011;61387;48.112;8.616;2023-11-18T00:17:46;11.57;;;5.80;;
27744;SDS011;61387;48.112;8.616;2023-11-18T00:20:12;12.60;;;7.00;;
27744;SDS011;61387;48.112;8.616;2023-11-18T00:22:39;11.80;;;6.47;;
27744;SDS011;61387;48.112;8.616;2023-11-18T00:25:05;10.10;;;5.50;;
27744;SDS011;61387;48.112;8.616;2023-11-18T00:27:32;9.77;;;5.07;;
27744;SDS011;61387;48.112;8.616;2023-11-18T00:30:01;8.37;;;4.57;;
27744;SDS011;61387;48.112;8.616;2023-11-18T00:32:29;9.17;;;4.97;;
27744;SDS011;61387;48.112;8.616;2023-11-18T00:34:56;9.07;;;4.53;;
27744;SDS011;61387;48.112;8.616;2023-11-18T00:37:22;8.00;;;4.60;;
27744;SDS011;61387;48.112;8.616;2023-11-18T00:39:48;7.73;;;4.33;;
27744;SDS011;61387;48.112;8.616;2023-11-18T00:42:14;9.70;;;5.67;;
27744;SDS011;61387;48.112;8.616;2023-11-18T00:44:40;9.10;;;5.07;;
27744;SDS011;61387;48.112;8.616;2023-11-18T00:47:07;9.53;;;5.23;;
27744;SDS011;61387;48.112;8.616;2023-11-18T00:49:33;9.43;;;5.03;;
27744;SDS011;61387;48.112;8.616;2023-11-18T00:51:59;9.63;;;5.63;;
27744;SDS011;61387;48.112;8.616;2023-11-18T00:54:25;25.23;;;8.70;;
27744;SDS011;61387;48.112;8.616;2023-11-18T00:56:51;18.00;;;8.10;;
27744;SDS011;61387;48.112;8.616;2023-11-18T00:59:17;12.90;;;7.10;;
27744;SDS011;61387;48.112;8.616;2023-11-18T01:01:43;12.70;;;6.73;;
27744;SDS011;61387;48.112;8.616;2023-11-18T01:04:09;14.20;;;7.30;;
27744;SDS011;61387;48.112;8.616;2023-11-18T01:06:35;11.20;;;6.23;;
27744;SDS011;61387;48.112;8.616;2023-11-18T01:09:01;13.77;;;7.57;;
27744;SDS011;61387;48.112;8.616;2023-11-18T01:11:28;12.23;;;7.10;;
27744;SDS011;61387;48.112;8.616;2023-11-18T01:13:54;10.17;;;6.07;;
27744;SDS011;61387;48.112;8.616;2023-11-18T01:16:21;13.63;;;7.07;;
27744;SDS011;61387;48.112;8.616;2023-11-18T01:18:47;13.97;;;6.70;;
27744;SDS011;61387;48.112;8.616;2023-11-18T01:21:13;12.47;;;6.00;;
27744;SDS011;61387;48.112;8.616;2023-11-18T01:23:42;10.60;;;5.97;;
27744;SDS011;61387;48.112;8.616;2023-11-18T01:26:09;10.50;;;5.80;;
27744;SDS011;61387;48.112;8.616;2023-11-18T01:28:37;11.87;;;5.77;;
27744;SDS011;61387;48.112;8.616;2023-11-18T01:31:07;10.43;;;5.50;;
27744;SDS011;61387;48.112;8.616;2023-11-18T01:33:35;10.70;;;5.10;;
27744;SDS011;61387;48.112;8.616;2023-11-18T01:36:02;9.27;;;4.70;;
27744;SDS011;61387;48.112;8.616;2023-11-18T01:38:28;8.60;;;4.70;;
27744;SDS011;61387;48.112;8.616;2023-11-18T01:40:55;7.97;;;4.53;;
27744;SDS011;61387;48.112;8.616;2023-11-18T01:43:21;9.77;;;4.80;;
27744;SDS011;61387;48.112;8.616;2023-11-18T01:45:47;9.47;;;4.70;;
27744;SDS011;61387;48.112;8.616;2023-11-18T01:48:13;8.30;;;4.10;;
27744;SDS011;61387;48.112;8.616;2023-11-18T01:50:40;8.30;;;3.97;;
27744;SDS011;61387;48.112;8.616;2023-11-18T01:53:08;7.57;;;4.20;;
27744;SDS011;61387;48.112;8.616;2023-11-18T01:55:35;7.63;;;3.93;;
27744;SDS011;61387;48.112;8.616;2023-11-18T01:58:03;7.77;;;4.50;;
27744;SDS011;61387;48.112;8.616;2023-11-18T02:00:36;6.90;;;3.57;;
27744;SDS011;61387;48.112;8.616;2023-11-18T02:03:05;6.53;;;3.70;;
27744;SDS011;61387;48.112;8.616;2023-11-18T02:05:31;7.87;;;4.17;;
27744;SDS011;61387;48.112;8.616;2023-11-18T02:08:00;8.17;;;4.03;;
27744;SDS011;61387;48.112;8.616;2023-11-18T02:10:30;8.90;;;3.93;;
27744;SDS011;61387;48.112;8.616;2023-11-18T02:12:58;7.73;;;4.53;;
27744;SDS011;61387;48.112;8.616;2023-11-18T02:15:37;9.70;;;5.30;;
27744;SDS011;61387;48.112;8.616;2023-11-18T02:18:06;8.73;;;4.07;;
27744;SDS011;61387;48.112;8.616;2023-11-18T02:20:35;9.33;;;4.43;;
27744;SDS011;61387;48.112;8.616;2023-11-18T02:23:02;8.47;;;4.80;;
27744;SDS011;61387;48.112;8.616;2023-11-18T02:25:28;7.30;;;4.00;;
27744;SDS011;61387;48.112;8.616;2023-11-18T02:27:55;7.87;;;4.43;;
27744;SDS011;61387;48.112;8.616;2023-11-18T02:30:21;8.43;;;4.33;;
27744;SDS011;61387;48.112;8.616;2023-11-18T02:32:51;7.47;;;3.80;;
27744;SDS011;61387;48.112;8.616;2023-11-18T02:35:23;6.80;;;3.97;;
27744;SDS011;61387;48.112;8.616;2023-11-18T02:37:53;7.33;;;4.23;;
27744;SDS011;61387;48.112;8.616;2023-11-18T02:40:20;9.50;;;4.87;;
27744;SDS011;61387;48.112;8.616;2023-11-18T02:42:55;12.67;;;5.80;;
27744;SDS011;61387;48.112;8.616;2023-11-18T02:45:24;9.77;;;5.33;;
27744;SDS011;61387;48.112;8.616;2023-11-18T02:47:50;11.63;;;5.80;;
27744;SDS011;61387;48.112;8.616;2023-11-18T02:50:16;9.87;;;5.13;;
27744;SDS011;61387;48.112;8.616;2023-11-18T02:52:44;9.77;;;5.40;;
27744;SDS011;61387;48.112;8.616;2023-11-18T02:55:10;9.37;;;5.03;;
27744;SDS011;61387;48.112;8.616;2023-11-18T02:57:36;10.87;;;5.33;;
27744;SDS011;61387;48.112;8.616;2023-11-18T03:00:03;8.50;;;4.43;;
27744;SDS011;61387;48.112;8.616;2023-11-18T03:02:36;9.37;;;4.90;;
27744;SDS011;61387;48.112;8.616;2023-11-18T03:05:04;9.00;;;4.80;;
27744;SDS011;61387;48.112;8.616;2023-11-18T03:07:36;10.13;;;5.17;;
27744;SDS011;61387;48.112;8.616;2023-11-18T03:10:02;7.80;;;4.33;;
27744;SDS011;61387;48.112;8.616;2023-11-18T03:12:34;8.10;;;4.17;;
27744;SDS011;61387;48.112;8.616;2023-11-18T03:15:00;11.67;;;4.63;;
27744;SDS011;61387;48.112;8.616;2023-11-18T03:17:26;10.87;;;4.47;;
27744;SDS011;61387;48.112;8.616;2023-11-18T03:19:53;8.60;;;4.37;;
27744;SDS011;61387;48.112;8.616;2023-11-18T03:22:19;8.97;;;4.50;;
27744;SDS011;61387;48.112;8.616;2023-11-18T03:24:45;9.33;;;4.10;;
27744;SDS011;61387;48.112;8.616;2023-11-18T03:27:11;7.63;;;4.10;;
27744;SDS011;61387;48.112;8.616;2023-11-18T03:29:36;7.20;;;3.70;;
27744;SDS011;61387;48.112;8.616;2023-11-18T03:32:02;6.73;;;3.47;;
27744;SDS011;61387;48.112;8.616;2023-11-18T03:34:30;7.93;;;3.60;;
27744;SDS011;61387;48.112;8.616;2023-11-18T03:36:56;5.73;;;2.80;;
27744;SDS011;61387;48.112;8.616;2023-11-18T03:39:22;5.37;;;3.00;;
27744;SDS011;61387;48.112;8.616;2023-11-18T03:41:48;4.80;;;2.70;;
27744;SDS011;61387;48.112;8.616;2023-11-18T03:44:14;6.43;;;3.07;;
27744;SDS011;61387;48.112;8.616;2023-11-18T03:46:42;6.60;;;2.90;;
27744;SDS011;61387;48.112;8.616;2023-11-18T03:49:08;6.63;;;3.10;;
27744;SDS011;61387;48.112;8.616;2023-11-18T03:51:34;5.80;;;3.00;;
27744;SDS011;61387;48.112;8.616;2023-11-18T03:54:00;4.77;;;2.67;;
27744;SDS011;61387;48.112;8.616;2023-11-18T03:56:26;7.53;;;3.00;;
27744;SDS011;61387;48.112;8.616;2023-11-18T03:58:52;5.67;;;3.10;;
27744;SDS011;61387;48.112;8.616;2023-11-18T04:01:21;6.77;;;2.80;;
27744;SDS011;61387;48.112;8.616;2023-11-18T04:03:48;6.27;;;2.73;;
27744;SDS011;61387;48.112;8.616;2023-11-18T04:06:14;5.37;;;2.87;;
27744;SDS011;61387;48.112;8.616;2023-11-18T04:08:43;6.57;;;2.97;;
27744;SDS011;61387;48.112;8.616;2023-11-18T04:11:12;5.90;;;3.20;;
27744;SDS011;61387;48.112;8.616;2023-11-18T04:13:39;5.93;;;2.87;;
27744;SDS011;61387;48.112;8.616;2023-11-18T04:16:07;6.10;;;3.00;;
27744;SDS011;61387;48.112;8.616;2023-11-18T04:18:38;4.00;;;2.70;;
27744;SDS011;61387;48.112;8.616;2023-11-18T04:21:05;5.13;;;2.73;;
27744;SDS011;61387;48.112;8.616;2023-11-18T04:23:32;5.67;;;3.30;;
27744;SDS011;61387;48.112;8.616;2023-11-18T04:25:59;5.80;;;2.90;;
27744;SDS011;61387;48.112;8.616;2023-11-18T04:28:25;5.23;;;3.37;;
27744;SDS011;61387;48.112;8.616;2023-11-18T04:30:51;8.27;;;3.47;;
27744;SDS011;61387;48.112;8.616;2023-11-18T04:33:17;4.73;;;2.87;;
27744;SDS011;61387;48.112;8.616;2023-11-18T04:35:45;6.03;;;3.30;;
27744;SDS011;61387;48.112;8.616;2023-11-18T04:38:11;6.10;;;3.13;;
27744;SDS011;61387;48.112;8.616;2023-11-18T04:40:37;6.60;;;3.20;;
27744;SDS011;61387;48.112;8.616;2023-11-18T04:43:06;5.23;;;2.57;;
27744;SDS011;61387;48.112;8.616;2023-11-18T04:45:32;5.37;;;2.83;;
27744;SDS011;61387;48.112;8.616;2023-11-18T04:47:59;4.87;;;2.77;;
27744;SDS011;61387;48.112;8.616;2023-11-18T04:50:25;6.93;;;2.70;;
27744;SDS011;61387;48.112;8.616;2023-11-18T04:52:50;5.20;;;3.10;;
27744;SDS011;61387;48.112;8.616;2023-11-18T04:55:16;5.37;;;3.03;;
27744;SDS011;61387;48.112;8.616;2023-11-18T04:57:43;5.07;;;2.97;;
27744;SDS011;61387;48.112;8.616;2023-11-18T05:00:09;6.33;;;3.30;;
27744;SDS011;61387;48.112;8.616;2023-11-18T05:02:36;6.60;;;3.77;;
27744;SDS011;61387;48.112;8.616;2023-11-18T05:05:03;6.23;;;3.37;;
27744;SDS011;61387;48.112;8.616;2023-11-18T05:07:31;6.00;;;3.50;;
27744;SDS011;61387;48.112;8.616;2023-11-18T05:09:57;7.77;;;4.00;;
27744;SDS011;61387;48.112;8.616;2023-11-18T05:12:23;7.20;;;4.00;;
27744;SDS011;61387;48.112;8.616;2023-11-18T05:14:49;7.50;;;3.53;;
27744;SDS011;61387;48.112;8.616;2023-11-18T05:17:15;6.30;;;3.60;;
27744;SDS011;61387;48.112;8.616;2023-11-18T05:19:41;8.27;;;4.13;;
27744;SDS011;61387;48.112;8.616;2023-11-18T05:22:08;10.77;;;4.20;;
27744;SDS011;61387;48.112;8.616;2023-11-18T05:24:34;11.37;;;5.43;;
27744;SDS011;61387;48.112;8.616;2023-11-18T05:27:00;7.93;;;4.63;;
27744;SDS011;61387;48.112;8.616;2023-11-18T05:29:29;5.27;;;2.70;;
27744;SDS011;61387;48.112;8.616;2023-11-18T05:31:55;6.40;;;3.07;;
27744;SDS011;61387;48.112;8.616;2023-11-18T05:34:20;5.62;;;3.10;;
27744;SDS011;61387;48.112;8.616;2023-11-18T05:36:47;6.83;;;3.43;;
27744;SDS011;61387;48.112;8.616;2023-11-18T05:39:16;4.57;;;2.77;;
27744;SDS011;61387;48.112;8.616;2023-11-18T05:41:42;5.50;;;2.83;;
27744;SDS011;61387;48.112;8.616;2023-11-18T05:44:11;7.03;;;3.90;;
27744;SDS011;61387;48.112;8.616;2023-11-18T05:46:42;5.30;;;3.23;;
27744;SDS011;61387;48.112;8.616;2023-11-18T05:49:11;5.70;;;2.97;;
27744;SDS011;61387;48.112;8.616;2023-11-18T05:51:38;6.97;;;3.57;;
27744;SDS011;61387;48.112;8.616;2023-11-18T05:54:05;7.53;;;3.73;;
27744;SDS011;61387;48.112;8.616;2023-11-18T05:56:32;7.77;;;3.47;;
27744;SDS011;61387;48.112;8.616;2023-11-18T05:58:58;7.90;;;3.90;;
27744;SDS011;61387;48.112;8.616;2023-11-18T06:01:24;5.77;;;3.50;;
27744;SDS011;61387;48.112;8.616;2023-11-18T06:03:52;6.83;;;3.57;;
27744;SDS011;61387;48.112;8.616;2023-11-18T06:06:18;8.07;;;3.60;;
27744;SDS011;61387;48.112;8.616;2023-11-18T06:08:46;7.43;;;3.57;;
27744;SDS011;61387;48.112;8.616;2023-11-18T06:11:13;7.37;;;3.53;;
27744;SDS011;61387;48.112;8.616;2023-11-18T06:13:43;7.57;;;3.87;;
27744;SDS011;61387;48.112;8.616;2023-11-18T06:16:15;8.50;;;3.43;;
27744;SDS011;61387;48.112;8.616;2023-11-18T06:18:57;6.43;;;3.27;;
27744;SDS011;61387;48.112;8.616;2023-11-18T06:21:24;6.23;;;3.23;;
27744;SDS011;61387;48.112;8.616;2023-11-18T06:23:53;5.30;;;3.00;;
27744;SDS011;61387;48.112;8.616;2023-11-18T06:26:22;6.57;;;3.50;;
27744;SDS011;61387;48.112;8.616;2023-11-18T06:28:51;5.30;;;2.73;;
27744;SDS011;61387;48.112;8.616;2023-11-18T06:31:18;5.60;;;3.20;;
27744;SDS011;61387;48.112;8.616;2023-11-18T06:33:45;6.10;;;3.10;;
27744;SDS011;61387;48.112;8.616;2023-11-18T06:38:52;11.00;;;4.30;;
27744;SDS011;61387;48.112;8.616;2023-11-18T06:41:19;10.50;;;4.83;;
27744;SDS011;61387;48.112;8.616;2023-11-18T06:43:48;18.10;;;5.30;;
27744;SDS011;61387;48.112;8.616;2023-11-18T06:46:20;34.70;;;6.03;;
27744;SDS011;61387;48.112;8.616;2023-11-18T06:48:53;22.93;;;6.37;;
27744;SDS011;61387;48.112;8.616;2023-11-18T06:51:23;11.33;;;5.60;;
27744;SDS011;61387;48.112;8.616;2023-11-18T06:53:53;12.20;;;6.00;;
27744;SDS011;61387;48.112;8.616;2023-11-18T06:56:23;10.67;;;5.30;;
27744;SDS011;61387;48.112;8.616;2023-11-18T06:58:52;10.03;;;5.27;;
27744;SDS011;61387;48.112;8.616;2023-11-18T07:01:18;11.33;;;5.40;;
27744;SDS011;61387;48.112;8.616;2023-11-18T07:03:45;10.80;;;5.37;;
27744;SDS011;61387;48.112;8.616;2023-11-18T07:06:16;13.10;;;4.57;;
27744;SDS011;61387;48.112;8.616;2023-11-18T07:08:46;10.43;;;4.97;;
27744;SDS011;61387;48.112;8.616;2023-11-18T07:11:14;8.27;;;4.77;;
27744;SDS011;61387;48.112;8.616;2023-11-18T07:13:40;9.83;;;4.60;;
27744;SDS011;61387;48.112;8.616;2023-11-18T07:16:06;12.67;;;5.23;;
27744;SDS011;61387;48.112;8.616;2023-11-18T07:18:33;10.53;;;4.97;;
27744;SDS011;61387;48.112;8.616;2023-11-18T07:20:59;9.90;;;4.27;;
27744;SDS011;61387;48.112;8.616;2023-11-18T07:23:26;10.93;;;5.10;;
27744;SDS011;61387;48.112;8.616;2023-11-18T07:25:52;8.57;;;4.60;;
27744;SDS011;61387;48.112;8.616;2023-11-18T07:28:18;8.47;;;4.67;;
27744;SDS011;61387;48.112;8.616;2023-11-18T07:30:44;8.60;;;4.43;;
27744;SDS011;61387;48.112;8.616;2023-11-18T07:33:15;8.77;;;4.47;;
27744;SDS011;61387;48.112;8.616;2023-11-18T07:35:42;8.13;;;4.00;;
27744;SDS011;61387;48.112;8.616;2023-11-18T07:38:08;7.77;;;4.90;;
27744;SDS011;61387;48.112;8.616;2023-11-18T07:40:35;9.83;;;4.60;;
27744;SDS011;61387;48.112;8.616;2023-11-18T07:43:02;7.27;;;3.97;;
27744;SDS011;61387;48.112;8.616;2023-11-18T07:45:34;27.93;;;16.70;;
27744;SDS011;61387;48.112;8.616;2023-11-18T07:48:03;12.43;;;6.83;;
27744;SDS011;61387;48.112;8.616;2023-11-18T07:50:33;10.00;;;6.10;;
27744;SDS011;61387;48.112;8.616;2023-11-18T07:53:02;11.03;;;6.37;;
27744;SDS011;61387;48.112;8.616;2023-11-18T07:55:28;12.90;;;7.37;;
27744;SDS011;61387;48.112;8.616;2023-11-18T07:57:54;12.73;;;7.57;;
27744;SDS011;61387;48.112;8.616;2023-11-18T08:00:20;16.10;;;9.47;;
27744;SDS011;61387;48.112;8.616;2023-11-18T08:02:48;15.37;;;10.30;;
27744;SDS011;61387;48.112;8.616;2023-11-18T08:05:14;12.07;;;7.63;;
27744;SDS011;61387;48.112;8.616;2023-11-18T08:07:42;11.97;;;8.57;;
27744;SDS011;61387;48.112;8.616;2023-11-18T08:10:09;13.57;;;8.77;;
27744;SDS011;61387;48.112;8.616;2023-11-18T08:12:38;14.27;;;8.97;;
27744;SDS011;61387;48.112;8.616;2023-11-18T08:15:05;19.00;;;10.10;;
27744;SDS011;61387;48.112;8.616;2023-11-18T08:17:34;22.27;;;11.97;;
27744;SDS011;61387;48.112;8.616;2023-11-18T08:20:00;22.50;;;12.07;;
27744;SDS011;61387;48.112;8.616;2023-11-18T08:22:26;18.40;;;10.07;;
27744;SDS011;61387;48.112;8.616;2023-11-18T08:24:53;18.13;;;10.30;;
27744;SDS011;61387;48.112;8.616;2023-11-18T08:27:18;17.40;;;9.80;;
27744;SDS011;61387;48.112;8.616;2023-11-18T08:29:45;15.73;;;8.60;;
27744;SDS011;61387;48.112;8.616;2023-11-18T08:32:13;14.97;;;8.90;;
27744;SDS011;61387;48.112;8.616;2023-11-18T08:34:39;13.33;;;7.97;;
27744;SDS011;61387;48.112;8.616;2023-11-18T08:37:05;15.20;;;8.57;;
27744;SDS011;61387;48.112;8.616;2023-11-18T08:39:32;12.43;;;8.10;;
27744;SDS011;61387;48.112;8.616;2023-11-18T08:41:58;12.80;;;8.30;;
27744;SDS011;61387;48.112;8.616;2023-11-18T08:44:24;11.77;;;8.47;;
27744;SDS011;61387;48.112;8.616;2023-11-18T08:46:51;12.93;;;8.00;;
27744;SDS011;61387;48.112;8.616;2023-11-18T08:49:20;12.10;;;6.90;;
27744;SDS011;61387;48.112;8.616;2023-11-18T08:51:50;11.07;;;5.90;;
27744;SDS011;61387;48.112;8.616;2023-11-18T08:54:23;9.67;;;6.53;;
27744;SDS011;61387;48.112;8.616;2023-11-18T08:56:53;12.03;;;7.10;;
27744;SDS011;61387;48.112;8.616;2023-11-18T08:59:20;11.07;;;6.83;;
27744;SDS011;61387;48.112;8.616;2023-11-18T09:01:52;11.47;;;6.50;;
27744;SDS011;61387;48.112;8.616;2023-11-18T09:04:24;9.83;;;6.97;;
27744;SDS011;61387;48.112;8.616;2023-11-18T09:06:50;10.07;;;6.00;;
27744;SDS011;61387;48.112;8.616;2023-11-18T09:09:19;9.80;;;6.23;;
27744;SDS011;61387;48.112;8.616;2023-11-18T09:11:51;11.30;;;6.97;;
27744;SDS011;61387;48.112;8.616;2023-11-18T09:14:17;10.20;;;5.93;;
27744;SDS011;61387;48.112;8.616;2023-11-18T09:16:44;9.67;;;6.07;;
27744;SDS011;61387;48.112;8.616;2023-11-18T09:19:10;8.10;;;4.30;;
27744;SDS011;61387;48.112;8.616;2023-11-18T09:21:36;7.87;;;4.90;;
27744;SDS011;61387;48.112;8.616;2023-11-18T09:24:02;9.30;;;5.23;;
27744;SDS011;61387;48.112;8.616;2023-11-18T09:26:36;7.07;;;4.67;;
27744;SDS011;61387;48.112;8.616;2023-11-18T09:29:02;7.07;;;4.53;;
27744;SDS011;61387;48.112;8.616;2023-11-18T09:31:29;8.40;;;4.50;;
27744;SDS011;61387;48.112;8.616;2023-11-18T09:33:56;7.43;;;4.97;;
27744;SDS011;61387;48.112;8.616;2023-11-18T09:36:23;7.87;;;4.63;;
27744;SDS011;61387;48.112;8.616;2023-11-18T09:38:49;7.23;;;4.63;;
27744;SDS011;61387;48.112;8.616;2023-11-18T09:41:15;4.47;;;3.23;;
27744;SDS011;61387;48.112;8.616;2023-11-18T09:43:42;6.63;;;3.57;;
27744;SDS011;61387;48.112;8.616;2023-11-18T09:46:15;5.10;;;3.30;;
27744;SDS011;61387;48.112;8.616;2023-11-18T09:48:45;4.03;;;2.80;;
27744;SDS011;61387;48.112;8.616;2023-11-18T09:51:21;5.77;;;3.50;;
27744;SDS011;61387;48.112;8.616;2023-11-18T09:53:49;5.90;;;3.07;;
27744;SDS011;61387;48.112;8.616;2023-11-18T09:56:19;4.00;;;2.80;;
27744;SDS011;61387;48.112;8.616;2023-11-18T10:01:51;6.80;;;3.90;;
27744;SDS011;61387;48.112;8.616;2023-11-18T10:04:23;8.63;;;3.30;;
27744;SDS011;61387;48.112;8.616;2023-11-18T10:06:52;7.90;;;3.97;;
27744;SDS011;61387;48.112;8.616;2023-11-18T10:09:19;7.30;;;4.33;;
27744;SDS011;61387;48.112;8.616;2023-11-18T10:11:53;7.57;;;4.10;;
27744;SDS011;61387;48.112;8.616;2023-11-18T10:14:25;9.90;;;4.40;;
27744;SDS011;61387;48.112;8.616;2023-11-18T10:16:51;8.97;;;4.70;;
27744;SDS011;61387;48.112;8.616;2023-11-18T10:19:19;9.77;;;4.57;;
27744;SDS011;61387;48.112;8.616;2023-11-18T10:21:45;7.93;;;4.33;;
27744;SDS011;61387;48.112;8.616;2023-11-18T10:24:14;10.43;;;5.23;;
27744;SDS011;61387;48.112;8.616;2023-11-18T10:26:44;9.37;;;4.83;;
27744;SDS011;61387;48.112;8.616;2023-11-18T10:29:10;11.17;;;4.60;;
27744;SDS011;61387;48.112;8.616;2023-11-18T10:31:39;7.73;;;4.60;;
27744;SDS011;61387;48.112;8.616;2023-11-18T10:34:10;8.07;;;4.90;;
27744;SDS011;61387;48.112;8.616;2023-11-18T10:36:47;9.10;;;4.73;;
27744;SDS011;61387;48.112;8.616;2023-11-18T10:39:27;10.37;;;4.50;;
27744;SDS011;61387;48.112;8.616;2023-11-18T10:42:00;6.53;;;3.67;;
27744;SDS011;61387;48.112;8.616;2023-11-18T10:44:26;7.37;;;4.23;;
27744;SDS011;61387;48.112;8.616;2023-11-18T10:46:55;8.53;;;5.07;;
27744;SDS011;61387;48.112;8.616;2023-11-18T10:49:23;9.77;;;5.33;;
27744;SDS011;61387;48.112;8.616;2023-11-18T10:51:53;9.70;;;5.90;;
27744;SDS011;61387;48.112;8.616;2023-11-18T10:54:20;10.07;;;5.67;;
27744;SDS011;61387;48.112;8.616;2023-11-18T10:56:46;8.47;;;4.30;;
27744;SDS011;61387;48.112;8.616;2023-11-18T10:59:16;8.07;;;5.07;;
27744;SDS011;61387;48.112;8.616;2023-11-18T11:01:43;8.53;;;5.03;;
27744;SDS011;61387;48.112;8.616;2023-11-18T11:04:10;8.57;;;4.90;;
27744;SDS011;61387;48.112;8.616;2023-11-18T11:06:40;8.73;;;4.43;;
27744;SDS011;61387;48.112;8.616;2023-11-18T11:09:07;7.93;;;4.60;;
27744;SDS011;61387;48.112;8.616;2023-11-18T11:11:44;7.27;;;4.63;;
27744;SDS011;61387;48.112;8.616;2023-11-18T11:14:14;7.13;;;4.63;;
27744;SDS011;61387;48.112;8.616;2023-11-18T11:16:46;9.03;;;5.27;;
27744;SDS011;61387;48.112;8.616;2023-11-18T11:22:00;10.60;;;6.30;;
27744;SDS011;61387;48.112;8.616;2023-11-18T11:27:38;8.13;;;4.77;;
27744;SDS011;61387;48.112;8.616;2023-11-18T11:30:20;8.70;;;5.70;;
27744;SDS011;61387;48.112;8.616;2023-11-18T11:35:23;7.23;;;4.47;;
27744;SDS011;61387;48.112;8.616;2023-11-18T11:37:56;8.07;;;4.70;;
27744;SDS011;61387;48.112;8.616;2023-11-18T11:40:29;7.50;;;4.57;;
27744;SDS011;61387;48.112;8.616;2023-11-18T11:42:57;9.47;;;4.73;;
27744;SDS011;61387;48.112;8.616;2023-11-18T11:45:26;8.83;;;5.23;;
27744;SDS011;61387;48.112;8.616;2023-11-18T11:47:56;8.57;;;4.90;;
27744;SDS011;61387;48.112;8.616;2023-11-18T11:54:09;8.37;;;5.00;;
27744;SDS011;61387;48.112;8.616;2023-11-18T11:56:44;7.23;;;4.87;;
27744;SDS011;61387;48.112;8.616;2023-11-18T12:02:18;12.07;;;6.10;;
27744;SDS011;61387;48.112;8.616;2023-11-18T12:04:49;9.10;;;4.87;;
27744;SDS011;61387;48.112;8.616;2023-11-18T12:07:19;8.57;;;5.30;;
27744;SDS011;61387;48.112;8.616;2023-11-18T12:09:48;13.23;;;7.80;;
27744;SDS011;61387;48.112;8.616;2023-11-18T12:12:19;10.63;;;5.77;;
27744;SDS011;61387;48.112;8.616;2023-11-18T12:14:49;9.63;;;5.67;;
27744;SDS011;61387;48.112;8.616;2023-11-18T12:17:17;11.37;;;7.30;;
27744;SDS011;61387;48.112;8.616;2023-11-18T12:19:50;8.03;;;5.17;;
27744;SDS011;61387;48.112;8.616;2023-11-18T12:22:23;7.27;;;5.33;;
27744;SDS011;61387;48.112;8.616;2023-11-18T12:38:14;11.70;;;6.30;;
27744;SDS011;61387;48.112;8.616;2023-11-18T12:41:10;24.90;;;10.53;;
27744;SDS011;61387;48.112;8.616;2023-11-18T12:49:44;6.70;;;4.50;;
27744;SDS011;61387;48.112;8.616;2023-11-18T12:52:15;6.50;;;4.00;;
27744;SDS011;61387;48.112;8.616;2023-11-18T12:54:43;14.80;;;7.13;;
27744;SDS011;61387;48.112;8.616;2023-11-18T12:57:15;10.00;;;4.70;;
27744;SDS011;61387;48.112;8.616;2023-11-18T12:59:47;6.70;;;4.50;;
27744;SDS011;61387;48.112;8.616;2023-11-18T13:02:13;14.37;;;7.17;;
27744;SDS011;61387;48.112;8.616;2023-11-18T13:04:44;7.57;;;4.13;;
27744;SDS011;61387;48.112;8.616;2023-11-18T13:07:12;6.77;;;4.67;;
27744;SDS011;61387;48.112;8.616;2023-11-18T13:09:40;7.27;;;4.30;;
27744;SDS011;61387;48.112;8.616;2023-11-18T13:12:09;6.37;;;3.70;;
27744;SDS011;61387;48.112;8.616;2023-11-18T13:14:35;7.10;;;5.00;;
27744;SDS011;61387;48.112;8.616;2023-11-18T13:17:04;6.33;;;4.20;;
27744;SDS011;61387;48.112;8.616;2023-11-18T13:19:31;7.83;;;3.73;;
27744;SDS011;61387;48.112;8.616;2023-11-18T13:24:26;7.60;;;4.40;;
27744;SDS011;61387;48.112;8.616;2023-11-18T13:26:53;5.53;;;3.93;;
27744;SDS011;61387;48.112;8.616;2023-11-18T13:29:20;5.87;;;3.73;;
27744;SDS011;61387;48.112;8.616;2023-11-18T13:31:48;6.93;;;4.27;;
27744;SDS011;61387;48.112;8.616;2023-11-18T13:34:14;6.93;;;4.33;;
27744;SDS011;61387;48.112;8.616;2023-11-18T13:36:41;8.00;;;4.70;;
27744;SDS011;61387;48.112;8.616;2023-11-18T13:39:08;8.93;;;4.60;;
27744;SDS011;61387;48.112;8.616;2023-11-18T13:41:41;5.40;;;3.80;;
27744;SDS011;61387;48.112;8.616;2023-11-18T13:44:07;6.67;;;4.03;;
27744;SDS011;61387;48.112;8.616;2023-11-18T13:46:37;4.43;;;3.17;;
27744;SDS011;61387;48.112;8.616;2023-11-18T13:49:05;3.63;;;2.80;;
27744;SDS011;61387;48.112;8.616;2023-11-18T13:51:31;5.60;;;3.17;;
27744;SDS011;61387;48.112;8.616;2023-11-18T13:54:00;4.17;;;2.90;;
27744;SDS011;61387;48.112;8.616;2023-11-18T13:56:28;5.50;;;3.23;;
27744;SDS011;61387;48.112;8.616;2023-11-18T13:58:54;4.13;;;2.90;;
27744;SDS011;61387;48.112;8.616;2023-11-18T14:01:20;5.07;;;2.73;;
27744;SDS011;61387;48.112;8.616;2023-11-18T14:03:46;4.77;;;2.97;;
27744;SDS011;61387;48.112;8.616;2023-11-18T14:06:13;5.17;;;3.60;;
27744;SDS011;61387;48.112;8.616;2023-11-18T14:08:42;8.40;;;3.80;;
27744;SDS011;61387;48.112;8.616;2023-11-18T14:11:08;12.43;;;6.50;;
27744;SDS011;61387;48.112;8.616;2023-11-18T14:13:34;6.50;;;3.77;;
27744;SDS011;61387;48.112;8.616;2023-11-18T14:16:03;10.03;;;4.80;;
27744;SDS011;61387;48.112;8.616;2023-11-18T14:18:34;4.90;;;3.00;;
27744;SDS011;61387;48.112;8.616;2023-11-18T14:21:01;6.50;;;3.30;;
27744;SDS011;61387;48.112;8.616;2023-11-18T14:23:29;5.67;;;3.00;;
27744;SDS011;61387;48.112;8.616;2023-11-18T14:25:54;6.13;;;3.40;;
27744;SDS011;61387;48.112;8.616;2023-11-18T14:28:20;4.73;;;3.10;;
27744;SDS011;61387;48.112;8.616;2023-11-18T14:30:50;7.50;;;3.60;;
27744;SDS011;61387;48.112;8.616;2023-11-18T14:33:16;5.37;;;3.30;;
27744;SDS011;61387;48.112;8.616;2023-11-18T14:35:44;6.70;;;3.87;;
27744;SDS011;61387;48.112;8.616;2023-11-18T14:38:11;9.93;;;5.27;;
27744;SDS011;61387;48.112;8.616;2023-11-18T14:40:37;9.30;;;4.70;;
27744;SDS011;61387;48.112;8.616;2023-11-18T14:43:05;5.83;;;3.70;;
27744;SDS011;61387;48.112;8.616;2023-11-18T14:45:32;5.37;;;3.50;;
27744;SDS011;61387;48.112;8.616;2023-11-18T14:47:59;6.97;;;4.40;;
27744;SDS011;61387;48.112;8.616;2023-11-18T14:50:25;7.80;;;3.87;;
27744;SDS011;61387;48.112;8.616;2023-11-18T14:52:52;6.53;;;3.80;;
27744;SDS011;61387;48.112;8.616;2023-11-18T14:55:27;8.70;;;4.20;;
27744;SDS011;61387;48.112;8.616;2023-11-18T14:57:54;6.50;;;3.77;;
27744;SDS011;61387;48.112;8.616;2023-11-18T15:00:20;9.27;;;4.93;;
27744;SDS011;61387;48.112;8.616;2023-11-18T15:02:53;5.43;;;3.27;;
27744;SDS011;61387;48.112;8.616;2023-11-18T15:05:23;6.53;;;3.77;;
27744;SDS011;61387;48.112;8.616;2023-11-18T15:07:55;6.97;;;3.63;;
27744;SDS011;61387;48.112;8.616;2023-11-18T15:10:23;7.47;;;3.63;;
27744;SDS011;61387;48.112;8.616;2023-11-18T15:12:50;6.43;;;3.63;;
27744;SDS011;61387;48.112;8.616;2023-11-18T15:15:22;6.60;;;3.10;;
27744;SDS011;61387;48.112;8.616;2023-11-18T15:17:55;3.97;;;2.80;;
27744;SDS011;61387;48.112;8.616;2023-11-18T15:20:22;5.67;;;3.70;;
27744;SDS011;61387;48.112;8.616;2023-11-18T15:22:49;5.27;;;3.30;;
27744;SDS011;61387;48.112;8.616;2023-11-18T15:25:15;5.37;;;3.27;;
27744;SDS011;61387;48.112;8.616;2023-11-18T15:27:43;5.40;;;3.30;;
27744;SDS011;61387;48.112;8.616;2023-11-18T15:30:12;6.90;;;3.20;;